Time;durP1;ratioP1;P1;durP2;ratioP2;P2;SDS_P1;SDS_P2;PMS_P1;PMS_P2;Temp;Humidity;BMP_temperature;BMP_pressure;BME280_temperature;BME280_humidity;BME280_pressure;Samples;Min_cycle;Max_cycle;Signal;HPM_P1;HPM_P2
2022/04/12 00:02:20;;;;;;;2.38;1.10;;;7.90;99.90;;;;;;4976637;28;20022;-80
2022/04/12 00:04:45;;;;;;;1.95;1.00;;;7.80;99.90;;;;;;5000305;28;20044;-80
2022/04/12 00:07:11;;;;;;;2.95;1.27;;;7.80;99.90;;;;;;4983095;28;20021;-80
2022/04/12 00:09:36;;;;;;;2.13;1.00;;;7.80;99.90;;;;;;4959419;28;20032;-81
2022/04/12 00:12:02;;;;;;;1.60;0.70;;;7.80;99.90;;;;;;4983533;28;20221;-80
2022/04/12 00:14:28;;;;;;;2.75;1.25;;;7.80;99.90;;;;;;4983734;28;20517;-81
2022/04/12 00:19:02;;;;;;;2.10;1.00;;;7.80;99.90;;;;;;4984443;28;20045;-81
2022/04/12 00:19:39;;;;;;;3.38;1.63;;;7.70;99.90;;;;;;4971208;28;20118;-81
2022/04/12 00:22:04;;;;;;;2.65;1.05;;;7.80;99.90;;;;;;4979868;28;20560;-81
2022/04/12 00:24:30;;;;;;;2.80;0.90;;;7.70;99.90;;;;;;4951395;28;20399;-82
2022/04/12 00:26:55;;;;;;;1.88;1.00;;;7.80;99.90;;;;;;4983479;28;20053;-81
2022/04/12 00:29:21;;;;;;;2.63;0.90;;;7.70;99.90;;;;;;4978674;28;20108;-81
2022/04/12 00:31:47;;;;;;;2.50;0.98;;;7.70;99.90;;;;;;4989390;28;20033;-80
2022/04/12 00:34:13;;;;;;;2.20;0.85;;;7.70;99.90;;;;;;4983187;28;20489;-79
2022/04/12 00:36:39;;;;;;;2.00;0.80;;;7.60;99.90;;;;;;4982663;28;20140;-82
2022/04/12 00:39:04;;;;;;;3.05;1.00;;;7.60;99.90;;;;;;4985185;28;20101;-81
2022/04/12 00:41:35;;;;;;;3.05;1.00;;;7.60;99.90;;;;;;4967216;28;20487;-81
2022/04/12 00:44:01;;;;;;;1.92;1.00;;;7.60;99.90;;;;;;4962806;28;20049;-82
2022/04/12 00:46:27;;;;;;;2.38;0.85;;;7.60;99.90;;;;;;4981047;28;20038;-81
2022/04/12 00:48:52;;;;;;;1.92;0.80;;;7.60;99.90;;;;;;4976973;28;20034;-80
2022/04/12 00:51:20;;;;;;;2.63;1.30;;;7.70;99.90;;;;;;4981946;28;20096;-81
2022/04/12 00:53:46;;;;;;;2.75;1.00;;;7.70;99.90;;;;;;4999414;28;20038;-81
2022/04/12 00:56:11;;;;;;;2.75;1.42;;;7.70;99.90;;;;;;5000767;28;20038;-81
2022/04/12 00:58:38;;;;;;;2.47;0.98;;;7.70;99.90;;;;;;4978165;28;20119;-82
2022/04/12 01:01:04;;;;;;;2.00;1.10;;;7.70;99.90;;;;;;4977001;28;20088;-80
2022/04/12 01:03:30;;;;;;;3.33;0.80;;;7.70;99.90;;;;;;4997813;28;20973;-81
2022/04/12 01:05:57;;;;;;;3.35;0.88;;;7.70;99.90;;;;;;4999093;28;20041;-80
2022/04/12 01:08:22;;;;;;;2.88;0.80;;;7.70;99.90;;;;;;4980271;28;20034;-81
2022/04/12 01:10:49;;;;;;;2.60;1.00;;;7.70;99.90;;;;;;5004848;28;20040;-80
2022/04/12 01:13:15;;;;;;;3.53;1.02;;;7.80;99.90;;;;;;4963606;28;20041;-81
2022/04/12 01:15:42;;;;;;;2.05;0.75;;;7.80;99.90;;;;;;4970731;28;20041;-80
2022/04/12 01:18:08;;;;;;;1.75;0.70;;;7.80;99.90;;;;;;4985514;28;20034;-81
2022/04/12 01:20:34;;;;;;;2.72;0.90;;;7.80;99.90;;;;;;4954426;28;20037;-80
2022/04/12 01:23:14;;;;;;;2.33;1.00;;;7.70;99.90;;;;;;5005825;28;20590;-82
2022/04/12 01:25:40;;;;;;;2.50;1.00;;;7.90;99.90;;;;;;4983646;28;20058;-81
2022/04/12 01:28:11;;;;;;;2.70;1.10;;;7.90;99.90;;;;;;4980345;28;20089;-80
2022/04/12 01:30:37;;;;;;;2.22;0.98;;;7.90;99.90;;;;;;5001989;28;20108;-81
2022/04/12 01:33:04;;;;;;;2.40;0.93;;;7.90;99.90;;;;;;5003393;28;20034;-81
2022/04/12 01:35:30;;;;;;;2.45;0.95;;;7.80;99.90;;;;;;4985342;28;20034;-82
2022/04/12 01:37:55;;;;;;;3.08;1.05;;;7.80;99.90;;;;;;4985999;28;20389;-80
2022/04/12 01:40:21;;;;;;;1.80;0.70;;;7.70;99.90;;;;;;4991260;28;20176;-80
2022/04/12 01:42:47;;;;;;;1.90;0.70;;;7.80;99.90;;;;;;4970370;28;20026;-81
2022/04/12 01:45:13;;;;;;;4.07;1.27;;;7.80;99.90;;;;;;4987747;28;20022;-81
2022/04/12 01:47:38;;;;;;;2.05;0.85;;;7.80;99.90;;;;;;5003167;28;20034;-81
2022/04/12 01:50:06;;;;;;;3.33;0.80;;;7.80;99.90;;;;;;4970853;28;20021;-81
2022/04/12 01:52:33;;;;;;;1.90;0.70;;;7.70;99.90;;;;;;4981907;28;20458;-81
2022/04/12 01:54:58;;;;;;;2.53;0.73;;;7.80;99.90;;;;;;4978366;28;20045;-81
2022/04/12 01:57:24;;;;;;;2.67;0.68;;;7.80;99.90;;;;;;4980567;28;20050;-81
2022/04/12 01:59:50;;;;;;;2.80;0.77;;;7.80;99.90;;;;;;4986338;28;20418;-80
2022/04/12 02:02:15;;;;;;;1.70;0.60;;;7.70;99.90;;;;;;4965750;28;20037;-81
2022/04/12 02:04:41;;;;;;;2.22;0.70;;;7.80;99.90;;;;;;4986580;28;20026;-81
2022/04/12 02:07:07;;;;;;;3.45;0.98;;;7.80;99.90;;;;;;5004913;28;20496;-81
2022/04/12 02:09:33;;;;;;;1.92;0.70;;;7.80;99.90;;;;;;5002827;28;20379;-81
2022/04/12 02:11:58;;;;;;;1.83;0.75;;;7.80;99.90;;;;;;4984901;28;20026;-81
2022/04/12 02:14:24;;;;;;;2.55;0.95;;;7.70;99.90;;;;;;4968262;28;20446;-80
2022/04/12 02:16:50;;;;;;;2.10;0.60;;;7.80;99.90;;;;;;5003807;28;20048;-80
2022/04/12 02:19:16;;;;;;;2.45;0.60;;;7.60;99.90;;;;;;4964304;28;20030;-80
2022/04/12 02:21:41;;;;;;;2.10;0.70;;;7.50;99.90;;;;;;4996451;28;20054;-82
2022/04/12 02:24:07;;;;;;;1.50;0.60;;;7.30;99.90;;;;;;4971220;28;20040;-81
2022/04/12 02:26:34;;;;;;;1.42;0.60;;;7.20;99.90;;;;;;4980986;28;20190;-80
2022/04/12 02:29:00;;;;;;;2.08;0.60;;;7.30;99.90;;;;;;4987720;28;20044;-80
2022/04/12 02:31:25;;;;;;;1.95;0.60;;;7.30;99.90;;;;;;4980699;28;20022;-81
2022/04/12 02:33:51;;;;;;;1.92;0.60;;;7.20;99.90;;;;;;5002525;28;20037;-81
2022/04/12 02:36:16;;;;;;;1.50;0.60;;;7.20;99.90;;;;;;4968652;28;20046;-80
2022/04/12 02:38:42;;;;;;;2.05;0.50;;;7.10;99.90;;;;;;4963965;28;20102;-80
2022/04/12 02:41:08;;;;;;;2.63;0.70;;;7.10;99.90;;;;;;4967884;28;20030;-80
2022/04/12 02:43:34;;;;;;;3.17;0.55;;;7.10;99.90;;;;;;4993582;28;20683;-80
2022/04/12 02:46:01;;;;;;;1.20;0.50;;;7.00;99.90;;;;;;4987738;28;20033;-82
2022/04/12 02:48:27;;;;;;;1.25;0.55;;;7.00;99.90;;;;;;5002633;28;20026;-81
2022/04/12 02:50:53;;;;;;;1.80;0.60;;;7.00;99.90;;;;;;4976297;28;21885;-82
2022/04/12 02:53:19;;;;;;;1.83;0.60;;;7.00;99.90;;;;;;4979900;28;21079;-81
2022/04/12 02:55:44;;;;;;;1.70;0.70;;;7.00;99.90;;;;;;4968541;28;20141;-81
2022/04/12 02:58:10;;;;;;;2.30;0.70;;;6.90;99.90;;;;;;4985762;28;20025;-81
2022/04/12 03:00:36;;;;;;;3.05;1.08;;;6.80;99.90;;;;;;4995489;28;20556;-81
2022/04/12 03:03:01;;;;;;;2.05;0.60;;;6.80;99.90;;;;;;5002908;28;20022;-81
2022/04/12 03:05:27;;;;;;;1.98;0.80;;;6.70;99.90;;;;;;4996364;28;20022;-81
2022/04/12 03:07:53;;;;;;;1.90;0.80;;;6.50;99.90;;;;;;4985941;28;20581;-81
2022/04/12 03:10:18;;;;;;;1.92;0.80;;;6.40;99.90;;;;;;4986156;28;20076;-81
2022/04/12 03:12:44;;;;;;;1.80;0.70;;;6.40;99.90;;;;;;5002721;28;20493;-80
2022/04/12 03:15:09;;;;;;;2.03;0.60;;;6.30;99.90;;;;;;5002060;28;20041;-79
2022/04/12 03:17:35;;;;;;;1.92;0.80;;;6.30;99.90;;;;;;4985230;28;20030;-80
2022/04/12 03:20:01;;;;;;;2.75;0.68;;;6.30;99.90;;;;;;4982677;28;21839;-80
2022/04/12 03:22:27;;;;;;;1.80;0.90;;;6.20;99.90;;;;;;4995609;28;20034;-81
2022/04/12 03:24:52;;;;;;;2.35;0.82;;;6.10;99.90;;;;;;4998989;28;20030;-79
2022/04/12 03:27:18;;;;;;;2.17;0.85;;;6.10;99.90;;;;;;4985713;28;20055;-81
2022/04/12 03:29:44;;;;;;;2.17;0.93;;;6.10;99.90;;;;;;5001601;28;20030;-81
2022/04/12 03:32:09;;;;;;;2.30;0.73;;;6.10;99.90;;;;;;4984415;28;20042;-81
2022/04/12 03:34:36;;;;;;;1.80;0.70;;;6.10;99.90;;;;;;4985014;28;20040;-81
2022/04/12 03:37:02;;;;;;;3.15;0.60;;;6.10;99.90;;;;;;4983482;28;20060;-82
2022/04/12 03:39:28;;;;;;;2.03;0.90;;;6.00;99.90;;;;;;4981989;28;20038;-81
2022/04/12 03:41:54;;;;;;;2.45;1.08;;;6.00;99.90;;;;;;4982175;28;20317;-79
2022/04/12 03:44:20;;;;;;;1.80;0.70;;;5.90;99.90;;;;;;4956803;28;20030;-81
2022/04/12 03:46:45;;;;;;;1.67;0.73;;;5.90;99.90;;;;;;4998483;28;20092;-81
2022/04/12 03:49:11;;;;;;;1.98;0.80;;;5.80;99.90;;;;;;4962150;28;20041;-80
2022/04/12 03:51:37;;;;;;;1.83;0.80;;;5.70;99.90;;;;;;4982481;28;20042;-80
2022/04/12 03:54:03;;;;;;;2.65;1.00;;;5.60;99.90;;;;;;4968002;28;20446;-81
2022/04/12 03:56:29;;;;;;;1.90;0.95;;;5.60;99.90;;;;;;4977639;28;20494;-80
2022/04/12 03:58:58;;;;;;;2.80;0.85;;;5.60;99.90;;;;;;4977163;28;20022;-80
2022/04/12 04:01:25;;;;;;;1.92;0.85;;;5.60;99.90;;;;;;4967666;28;20030;-80
2022/04/12 04:03:50;;;;;;;2.38;1.13;;;5.50;99.90;;;;;;4956879;28;20045;-80
2022/04/12 04:06:16;;;;;;;2.97;0.98;;;5.50;99.90;;;;;;4977655;28;20037;-80
2022/04/12 04:08:42;;;;;;;1.80;0.80;;;5.40;99.90;;;;;;4966922;28;20038;-80
2022/04/12 04:11:07;;;;;;;3.55;1.00;;;5.30;99.90;;;;;;4982072;28;20117;-81
2022/04/12 04:13:36;;;;;;;2.72;0.80;;;5.20;99.90;;;;;;4980164;28;20471;-81
2022/04/12 04:16:03;;;;;;;2.55;0.80;;;5.30;99.90;;;;;;4975317;28;20870;-80
2022/04/12 04:18:29;;;;;;;2.50;0.85;;;5.30;99.90;;;;;;4957941;28;20029;-80
2022/04/12 04:20:54;;;;;;;1.95;0.75;;;5.30;99.90;;;;;;4978996;28;20041;-80
2022/04/12 04:23:21;;;;;;;2.47;0.68;;;5.30;99.90;;;;;;4958826;28;20030;-81
2022/04/12 04:25:47;;;;;;;2.38;0.90;;;5.40;99.90;;;;;;4980494;28;20061;-80
2022/04/12 04:28:13;;;;;;;1.98;0.88;;;5.40;99.90;;;;;;4963795;28;20034;-80
2022/04/12 04:30:44;;;;;;;2.08;0.80;;;5.40;99.90;;;;;;4970394;28;20497;-81
2022/04/12 04:33:10;;;;;;;2.90;0.85;;;5.40;99.90;;;;;;4996051;28;20025;-80
2022/04/12 04:35:36;;;;;;;2.65;1.02;;;5.30;99.90;;;;;;4980297;28;20482;-80
2022/04/12 04:38:02;;;;;;;2.08;0.82;;;5.20;99.90;;;;;;4978415;28;20112;-80
2022/04/12 04:40:28;;;;;;;1.58;0.70;;;5.20;99.90;;;;;;4959787;28;20040;-80
2022/04/12 04:42:54;;;;;;;1.63;0.70;;;5.10;99.90;;;;;;4978275;28;20079;-80
2022/04/12 04:45:20;;;;;;;1.25;0.50;;;5.20;99.90;;;;;;4975547;28;20030;-80
2022/04/12 04:48:00;;;;;;;3.35;0.90;;;5.20;99.90;;;;;;4957221;28;20042;-80
2022/04/12 04:50:29;;;;;;;2.17;0.70;;;5.30;99.90;;;;;;4994697;28;20158;-80
2022/04/12 04:52:56;;;;;;;2.17;0.70;;;5.40;99.90;;;;;;4945107;28;1027264;-80
2022/04/12 04:55:22;;;;;;;1.40;0.60;;;5.50;99.90;;;;;;4981203;28;20034;-81
2022/04/12 04:57:47;;;;;;;2.92;0.80;;;5.50;99.90;;;;;;4980494;28;20100;-80
2022/04/12 05:00:17;;;;;;;2.08;0.80;;;5.60;99.90;;;;;;4997691;28;20038;-81
2022/04/12 05:02:47;;;;;;;;;;;5.50;99.90;;;;;;4978025;28;20285;-80
2022/04/12 05:05:14;;;;;;;1.23;0.57;;;5.50;99.90;;;;;;4979541;28;19917;-80
2022/04/12 05:07:41;;;;;;;2.00;0.70;;;5.60;99.90;;;;;;4992640;28;20034;-80
2022/04/12 05:10:07;;;;;;;1.75;0.60;;;5.70;99.90;;;;;;4973291;28;20387;-80
2022/04/12 05:12:33;;;;;;;2.78;0.75;;;5.70;99.90;;;;;;4979353;28;20033;-80
2022/04/12 05:14:59;;;;;;;3.22;0.90;;;5.70;99.90;;;;;;4979510;28;20037;-80
2022/04/12 05:17:28;;;;;;;3.45;0.70;;;5.80;99.90;;;;;;4996888;28;20121;-80
2022/04/12 05:19:56;;;;;;;1.95;0.90;;;5.90;99.90;;;;;;4978914;28;20482;-80
2022/04/12 05:22:23;;;;;;;2.25;1.00;;;5.90;99.90;;;;;;4990543;28;20041;-81
2022/04/12 05:24:49;;;;;;;1.50;0.77;;;5.90;99.90;;;;;;4974175;28;20061;-80
2022/04/12 05:27:15;;;;;;;2.03;0.70;;;5.90;99.90;;;;;;4974577;28;20042;-80
2022/04/12 05:29:41;;;;;;;1.90;0.80;;;6.00;99.90;;;;;;4994043;28;20038;-80
2022/04/12 05:32:09;;;;;;;1.65;0.73;;;6.00;99.90;;;;;;4959133;28;20478;-80
2022/04/12 05:34:38;;;;;;;2.47;0.98;;;6.00;99.90;;;;;;4978002;28;20105;-79
2022/04/12 05:37:04;;;;;;;2.35;1.00;;;6.00;99.90;;;;;;4989990;28;20088;-79
2022/04/12 05:39:30;;;;;;;2.17;0.90;;;6.10;99.90;;;;;;4941250;28;20117;-79
2022/04/12 05:42:00;;;;;;;2.80;1.10;;;6.10;99.90;;;;;;4987841;28;20037;-79
2022/04/12 05:44:26;;;;;;;2.17;0.80;;;6.20;99.90;;;;;;4978496;28;20203;-79
2022/04/12 05:46:52;;;;;;;2.00;0.80;;;6.40;99.90;;;;;;4957480;28;20042;-79
2022/04/12 05:49:17;;;;;;;2.55;1.02;;;6.40;99.90;;;;;;4993743;28;20037;-80
2022/04/12 05:51:43;;;;;;;2.42;1.00;;;6.50;99.90;;;;;;4977203;28;20196;-79
2022/04/12 05:54:08;;;;;;;2.28;1.00;;;6.50;99.90;;;;;;4996060;28;20037;-80
2022/04/12 05:56:34;;;;;;;2.20;0.90;;;6.60;99.90;;;;;;4983523;28;20419;-79
2022/04/12 05:58:59;;;;;;;2.03;1.10;;;6.80;99.90;;;;;;4964100;28;20143;-79
2022/04/12 06:01:25;;;;;;;2.05;1.05;;;6.90;99.90;;;;;;4963901;28;20046;-79
2022/04/12 06:03:51;;;;;;;2.70;1.17;;;7.00;99.90;;;;;;4995020;28;20076;-79
2022/04/12 06:06:16;;;;;;;3.75;1.25;;;6.90;99.90;;;;;;4966507;28;20557;-79
2022/04/12 06:08:42;;;;;;;2.97;1.15;;;6.90;99.90;;;;;;4980616;28;20038;-79
2022/04/12 06:11:07;;;;;;;2.60;1.15;;;7.00;99.90;;;;;;4980689;28;20065;-80
2022/04/12 06:13:33;;;;;;;2.72;1.20;;;7.10;99.90;;;;;;4964069;28;20497;-78
2022/04/12 06:15:59;;;;;;;2.33;1.20;;;7.20;99.90;;;;;;4944107;28;20045;-79
2022/04/12 06:18:24;;;;;;;3.70;1.08;;;7.30;99.90;;;;;;4980600;28;20104;-80
2022/04/12 06:20:50;;;;;;;3.45;1.30;;;7.50;99.90;;;;;;4987250;28;20034;-79
2022/04/12 06:23:17;;;;;;;2.90;1.30;;;7.60;99.90;;;;;;4980540;28;20173;-80
2022/04/12 06:25:43;;;;;;;2.72;1.15;;;7.70;99.90;;;;;;4979531;28;20038;-80
2022/04/12 06:28:09;;;;;;;2.75;1.30;;;7.80;99.90;;;;;;4960707;28;20084;-80
2022/04/12 06:30:35;;;;;;;3.38;1.00;;;7.90;99.90;;;;;;4990683;28;20221;-81
2022/04/12 06:33:01;;;;;;;3.40;1.15;;;8.00;99.90;;;;;;4979048;28;20490;-80
2022/04/12 06:35:26;;;;;;;3.15;1.08;;;8.20;99.90;;;;;;4980359;28;20033;-81
2022/04/12 06:37:53;;;;;;;4.53;1.30;;;8.50;99.90;;;;;;4993635;28;20026;-81
2022/04/12 06:40:20;;;;;;;3.30;1.10;;;8.60;99.90;;;;;;4997345;28;20042;-80
2022/04/12 06:42:47;;;;;;;1.77;0.95;;;8.70;99.90;;;;;;4963298;28;20047;-80
2022/04/12 06:45:13;;;;;;;2.58;1.17;;;8.70;99.90;;;;;;4979228;28;20172;-80
2022/04/12 06:47:39;;;;;;;2.80;1.23;;;8.60;99.90;;;;;;4973167;28;20045;-79
2022/04/12 06:50:06;;;;;;;2.90;0.90;;;8.70;99.90;;;;;;4997258;28;20501;-79
2022/04/12 06:52:32;;;;;;;3.00;1.00;;;9.00;99.90;;;;;;4963766;28;20061;-80
2022/04/12 06:54:58;;;;;;;2.72;1.20;;;9.20;99.90;;;;;;4973913;28;20034;-80
2022/04/12 06:57:23;;;;;;;2.53;1.00;;;9.50;99.90;;;;;;4979337;28;20045;-79
2022/04/12 06:59:51;;;;;;;3.08;1.10;;;9.80;99.90;;;;;;4979183;28;20395;-80
2022/04/12 07:02:17;;;;;;;4.03;0.90;;;9.90;99.90;;;;;;4996233;28;20040;-80
2022/04/12 07:04:42;;;;;;;4.13;1.30;;;10.10;99.90;;;;;;4979594;28;20112;-80
2022/04/12 07:07:08;;;;;;;3.25;1.15;;;10.30;99.90;;;;;;4994641;28;20693;-79
2022/04/12 07:09:34;;;;;;;2.67;1.00;;;10.50;99.90;;;;;;4973979;28;20041;-80
2022/04/12 07:12:00;;;;;;;2.40;1.02;;;10.70;99.90;;;;;;4978728;28;20018;-79
2022/04/12 07:14:29;;;;;;;2.30;1.10;;;10.90;99.90;;;;;;4961541;28;20390;-80
2022/04/12 07:16:55;;;;;;;3.38;1.27;;;11.10;99.90;;;;;;4978463;28;20042;-80
2022/04/12 07:19:21;;;;;;;2.65;1.00;;;11.30;99.90;;;;;;4977814;28;20061;-78
2022/04/12 07:21:48;;;;;;;2.42;1.25;;;11.60;99.90;;;;;;4995284;28;20046;-78
2022/04/12 07:24:13;;;;;;;2.60;1.35;;;11.80;99.90;;;;;;4979531;28;20026;-78
2022/04/12 07:26:39;;;;;;;3.08;1.00;;;11.90;99.90;;;;;;4962463;28;20041;-78
2022/04/12 07:29:05;;;;;;;2.97;1.27;;;11.80;99.90;;;;;;4948818;28;20046;-79
2022/04/12 07:31:31;;;;;;;2.60;1.10;;;11.70;99.90;;;;;;4993977;28;20041;-78
2022/04/12 07:33:57;;;;;;;2.88;0.98;;;11.50;99.90;;;;;;4995540;28;20211;-78
2022/04/12 07:36:22;;;;;;;3.00;1.20;;;11.50;99.90;;;;;;4973554;28;20683;-77
2022/04/12 07:38:49;;;;;;;3.33;0.93;;;11.60;99.90;;;;;;4977874;28;20075;-77
2022/04/12 07:41:15;;;;;;;2.20;1.05;;;11.80;99.90;;;;;;4996042;28;20060;-78
2022/04/12 07:43:42;;;;;;;2.55;1.00;;;12.10;99.90;;;;;;4973365;28;20030;-77
2022/04/12 07:46:08;;;;;;;2.50;0.93;;;12.20;99.90;;;;;;4957280;28;20025;-78
2022/04/12 07:48:34;;;;;;;3.65;0.85;;;12.40;99.90;;;;;;4977938;28;20482;-77
2022/04/12 07:50:59;;;;;;;2.92;1.35;;;12.70;99.90;;;;;;4983847;28;20124;-77
2022/04/12 07:53:25;;;;;;;3.25;0.95;;;12.90;99.90;;;;;;4993853;28;20038;-78
2022/04/12 07:55:50;;;;;;;2.88;1.02;;;13.10;99.90;;;;;;4977892;28;20056;-78
2022/04/12 07:58:16;;;;;;;3.45;1.15;;;13.10;99.90;;;;;;4977507;28;20061;-78
2022/04/12 08:00:42;;;;;;;3.55;1.40;;;13.20;99.90;;;;;;4975036;28;20025;-78
2022/04/12 08:03:08;;;;;;;2.83;1.15;;;13.40;99.90;;;;;;4978606;28;20038;-78
2022/04/12 08:05:34;;;;;;;2.90;1.33;;;13.60;99.90;;;;;;4973808;28;20041;-77
2022/04/12 08:08:00;;;;;;;3.60;1.33;;;13.60;99.90;;;;;;4995092;28;20038;-78
2022/04/12 08:10:26;;;;;;;2.80;0.93;;;13.70;99.90;;;;;;4976928;28;20022;-78
2022/04/12 08:12:55;;;;;;;2.50;0.80;;;13.70;99.90;;;;;;4965052;28;20049;-77
2022/04/12 08:15:22;;;;;;;2.47;1.10;;;13.90;99.90;;;;;;4995121;28;20060;-78
2022/04/12 08:17:48;;;;;;;1.88;0.82;;;14.00;99.90;;;;;;4988460;28;20045;-78
2022/04/12 08:20:13;;;;;;;2.38;0.85;;;14.30;99.90;;;;;;4996861;28;20026;-79
2022/04/12 08:22:40;;;;;;;3.40;1.45;;;14.50;99.90;;;;;;4978127;28;20033;-79
2022/04/12 08:25:07;;;;;;;2.28;1.00;;;14.50;99.90;;;;;;4977726;28;20034;-78
2022/04/12 08:27:33;;;;;;;2.97;1.08;;;14.60;99.90;;;;;;4963616;28;20127;-78
2022/04/12 08:29:59;;;;;;;2.08;0.90;;;14.90;99.90;;;;;;4975996;28;20231;-79
2022/04/12 08:32:25;;;;;;;2.65;0.70;;;15.00;99.90;;;;;;4967620;28;20128;-79
2022/04/12 08:34:50;;;;;;;2.60;0.82;;;15.10;99.90;;;;;;4976565;28;20702;-79
2022/04/12 08:37:16;;;;;;;1.80;0.80;;;15.20;99.90;;;;;;4977660;28;20040;-78
2022/04/12 08:39:42;;;;;;;3.38;0.80;;;15.40;99.90;;;;;;4995009;28;20505;-78
2022/04/12 08:42:07;;;;;;;3.20;0.80;;;15.60;99.90;;;;;;4970548;28;20088;-77
2022/04/12 08:44:36;;;;;;;2.17;0.80;;;15.70;99.90;;;;;;4997101;28;20114;-79
2022/04/12 08:47:06;;;;;;;4.00;1.08;;;15.80;99.90;;;;;;4955729;28;20034;-79
2022/04/12 08:49:32;;;;;;;2.97;0.95;;;15.90;99.90;;;;;;4977251;28;20070;-78
2022/04/12 08:51:58;;;;;;;4.03;1.05;;;15.70;99.90;;;;;;4986821;28;20066;-78
2022/04/12 08:54:24;;;;;;;3.17;0.90;;;15.80;99.90;;;;;;4982086;28;20586;-77
2022/04/12 08:56:51;;;;;;;2.38;1.02;;;16.00;99.90;;;;;;4976434;28;20035;-80
2022/04/12 08:59:17;;;;;;;2.47;0.85;;;16.10;99.90;;;;;;4934095;28;20219;-77
2022/04/12 09:01:44;;;;;;;2.30;0.77;;;16.10;99.90;;;;;;4977795;28;20042;-78
2022/04/12 09:04:10;;;;;;;4.00;0.98;;;16.00;99.90;;;;;;4962591;28;20096;-80
2022/04/12 09:06:51;;;;;;;2.00;0.60;;;16.10;99.90;;;;;;4942785;28;20041;-78
2022/04/12 09:09:22;;;;;;;2.28;0.90;;;16.30;99.90;;;;;;4961952;28;20054;-79
2022/04/12 09:12:02;;;;;;;4.47;1.02;;;16.20;99.90;;;;;;4975051;28;20026;-79
2022/04/12 09:14:41;;;;;;;1.65;0.55;;;16.50;99.90;;;;;;4964136;28;20030;-79
2022/04/12 09:17:10;;;;;;;1.83;0.60;;;16.60;99.90;;;;;;4948121;28;20061;-82
2022/04/12 09:19:48;;;;;;;1.85;0.60;;;16.70;99.90;;;;;;4961588;28;20058;-78
2022/04/12 09:22:24;;;;;;;2.38;0.73;;;16.90;99.90;;;;;;4971410;28;20070;-78
2022/04/12 09:25:01;;;;;;;2.05;0.65;;;17.00;99.90;;;;;;4932869;28;20077;-79
2022/04/12 09:27:29;;;;;;;3.38;1.02;;;17.00;99.90;;;;;;4968374;28;20086;-80
2022/04/12 09:29:58;;;;;;;2.55;0.68;;;17.20;99.90;;;;;;4963993;28;20081;-79
2022/04/12 09:32:29;;;;;;;2.30;0.70;;;17.30;99.90;;;;;;4949182;28;20034;-80
2022/04/12 09:34:57;;;;;;;1.88;0.60;;;17.50;99.90;;;;;;4936486;28;20449;-78
2022/04/12 09:37:31;;;;;;;3.00;1.00;;;17.40;99.90;;;;;;4945082;28;20065;-78
2022/04/12 09:39:59;;;;;;;3.28;0.80;;;17.30;99.90;;;;;;4964828;28;20096;-79
2022/04/12 09:42:48;;;;;;;2.10;0.63;;;17.50;99.90;;;;;;4949965;28;20125;-80
2022/04/12 09:45:16;;;;;;;2.20;0.60;;;17.80;99.90;;;;;;4939909;28;20444;-78
2022/04/12 09:47:43;;;;;;;2.55;0.80;;;18.00;99.90;;;;;;4978952;28;20870;-78
2022/04/12 09:50:10;;;;;;;3.10;1.05;;;18.10;99.90;;;;;;4966289;28;20062;-78
2022/04/12 09:52:36;;;;;;;2.65;0.88;;;18.00;99.90;;;;;;4992417;28;20053;-78
2022/04/12 09:55:03;;;;;;;2.88;0.80;;;18.20;99.90;;;;;;4979987;28;20033;-79
2022/04/12 09:57:28;;;;;;;2.00;0.60;;;18.50;99.90;;;;;;4957929;28;20377;-78
2022/04/12 09:59:56;;;;;;;2.33;0.65;;;18.60;99.90;;;;;;4966741;28;20034;-78
2022/04/12 10:02:26;;;;;;;2.00;0.60;;;18.90;99.90;;;;;;4958311;28;22055;-79
2022/04/12 10:04:54;;;;;;;1.70;0.60;;;18.90;99.90;;;;;;4961375;28;20295;-78
2022/04/12 10:07:22;;;;;;;1.98;0.50;;;19.00;99.90;;;;;;4973461;28;20034;-78
2022/04/12 10:09:50;;;;;;;1.92;0.50;;;18.80;99.90;;;;;;4972988;28;20030;-80
2022/04/12 10:12:17;;;;;;;4.25;0.93;;;19.00;99.90;;;;;;4976255;28;20450;-80
2022/04/12 10:14:43;;;;;;;4.57;0.70;;;18.60;99.90;;;;;;4995061;28;20096;-78
2022/04/12 10:17:11;;;;;;;1.92;0.80;;;19.00;99.90;;;;;;4977771;28;20310;-80
2022/04/12 10:19:38;;;;;;;1.83;0.65;;;19.20;99.90;;;;;;4976915;28;20773;-80
2022/04/12 10:22:04;;;;;;;1.23;0.55;;;19.20;99.90;;;;;;4973467;28;20116;-79
2022/04/12 10:24:35;;;;;;;3.58;0.88;;;19.50;99.90;;;;;;4996312;28;20028;-80
2022/04/12 10:27:02;;;;;;;6.53;1.25;;;19.40;99.90;;;;;;4961265;28;20469;-80
2022/04/12 10:29:28;;;;;;;1.85;0.80;;;19.10;99.90;;;;;;4961881;28;20043;-79
2022/04/12 10:31:58;;;;;;;2.38;0.60;;;19.40;99.90;;;;;;4979338;28;20040;-79
2022/04/12 10:34:24;;;;;;;2.30;0.50;;;19.50;99.90;;;;;;4994839;28;20580;-81
2022/04/12 10:37:04;;;;;;;1.65;0.50;;;19.50;99.90;;;;;;4978463;28;20128;-80
2022/04/12 10:39:36;;;;;;;1.88;0.45;;;20.00;99.90;;;;;;4960355;28;20467;-78
2022/04/12 10:42:13;;;;;;;2.47;0.50;;;20.10;99.90;;;;;;4945988;28;20026;-80
2022/04/12 10:44:45;;;;;;;2.05;0.55;;;20.30;99.90;;;;;;4958744;28;20042;-80
2022/04/12 10:47:31;;;;;;;1.40;0.43;;;20.50;99.90;;;;;;4958720;28;20040;-79
2022/04/12 10:50:03;;;;;;;1.17;0.40;;;20.50;99.90;;;;;;4971683;28;20040;-78
2022/04/12 10:52:47;;;;;;;1.67;0.52;;;20.50;99.90;;;;;;4992338;28;20447;-78
2022/04/12 10:55:18;;;;;;;1.80;0.40;;;20.30;99.90;;;;;;4973790;28;20036;-79
2022/04/12 10:57:45;;;;;;;2.25;0.50;;;20.40;99.90;;;;;;4956668;28;20439;-78
2022/04/12 11:00:13;;;;;;;1.13;0.30;;;20.60;99.90;;;;;;4975907;28;20120;-79
2022/04/12 11:02:43;;;;;;;1.73;0.60;;;20.80;99.90;;;;;;4995303;28;20360;-78
2022/04/12 11:05:37;;;;;;;2.50;0.50;;;20.40;99.90;;;;;;4975481;28;20674;-78
2022/04/12 11:08:15;;;;;;;1.60;0.50;;;20.40;99.90;;;;;;4991750;28;20065;-79
2022/04/12 11:10:42;;;;;;;3.80;0.68;;;20.80;99.90;;;;;;4956443;28;20402;-79
2022/04/12 11:13:11;;;;;;;3.65;0.50;;;20.90;99.90;;;;;;4995289;28;20029;-78
2022/04/12 11:15:38;;;;;;;2.78;0.60;;;20.90;99.90;;;;;;4989011;28;20036;-79
2022/04/12 11:18:11;;;;;;;1.23;0.40;;;20.60;99.90;;;;;;4993813;28;20312;-79
2022/04/12 11:20:57;;;;;;;1.55;0.40;;;20.70;99.90;;;;;;4976284;28;20034;-80
2022/04/12 11:23:51;;;;;;;1.85;0.40;;;20.80;99.90;;;;;;4995027;28;20152;-80
2022/04/12 11:26:40;;;;;;;2.08;0.40;;;20.60;99.90;;;;;;4976878;28;20504;-80
2022/04/12 11:29:12;;;;;;;1.85;0.40;;;20.50;99.90;;;;;;4975877;28;20054;-78
2022/04/12 11:31:50;;;;;;;2.08;0.50;;;20.20;99.90;;;;;;4957263;28;20037;-78
2022/04/12 11:34:17;;;;;;;1.13;0.30;;;19.80;99.90;;;;;;4995314;28;20177;-78
2022/04/12 11:36:51;;;;;;;1.70;0.45;;;19.70;99.90;;;;;;4974044;28;20038;-79
2022/04/12 11:39:38;;;;;;;2.25;0.40;;;20.00;99.90;;;;;;4976933;28;20125;-79
2022/04/12 11:42:05;;;;;;;1.88;0.30;;;20.20;99.90;;;;;;4966507;28;20037;-78
2022/04/12 11:44:31;;;;;;;1.70;0.32;;;20.20;99.90;;;;;;4997186;28;20034;-79
2022/04/12 11:47:02;;;;;;;0.90;0.30;;;20.50;99.90;;;;;;4977241;28;20565;-78
2022/04/12 11:49:33;;;;;;;1.23;0.40;;;20.60;99.90;;;;;;4979340;28;20112;-78
2022/04/12 11:52:00;;;;;;;1.20;0.50;;;20.70;99.90;;;;;;4990115;28;20108;-80
2022/04/12 11:54:34;;;;;;;2.55;0.55;;;20.90;99.90;;;;;;4973891;28;20038;-79
2022/04/12 11:57:07;;;;;;;2.75;0.50;;;20.90;99.90;;;;;;4994028;28;20057;-78
2022/04/12 11:59:36;;;;;;;1.42;0.60;;;20.90;99.90;;;;;;4969886;28;20033;-78
2022/04/12 12:02:04;;;;;;;1.88;0.60;;;20.90;99.90;;;;;;4992587;28;20030;-79
2022/04/12 12:04:34;;;;;;;2.17;0.73;;;21.10;99.90;;;;;;4994296;28;20085;-78
2022/04/12 12:07:05;;;;;;;1.70;0.60;;;21.00;99.90;;;;;;4950507;28;20103;-79
2022/04/12 12:09:32;;;;;;;4.55;0.70;;;20.70;99.90;;;;;;4992851;28;20589;-79
2022/04/12 12:12:00;;;;;;;2.00;0.60;;;21.00;99.90;;;;;;4974787;28;20552;-79
2022/04/12 12:14:27;;;;;;;1.73;0.55;;;21.20;99.90;;;;;;4966585;28;20129;-78
2022/04/12 12:17:01;;;;;;;2.30;0.50;;;21.20;99.90;;;;;;4988893;28;20569;-78
2022/04/12 12:19:28;;;;;;;2.00;0.60;;;20.90;99.90;;;;;;4962381;28;20730;-78
2022/04/12 12:21:54;;;;;;;1.75;0.50;;;20.70;99.90;;;;;;4971745;28;20041;-79
2022/04/12 12:24:20;;;;;;;2.63;0.70;;;20.60;99.90;;;;;;4975554;28;20029;-79
2022/04/12 12:26:45;;;;;;;2.58;0.70;;;20.60;99.90;;;;;;4981714;28;20146;-79
2022/04/12 12:29:14;;;;;;;1.52;0.50;;;20.80;99.90;;;;;;4961525;28;20505;-78
2022/04/12 12:31:43;;;;;;;2.13;0.50;;;20.60;99.90;;;;;;4971418;28;20034;-79
2022/04/12 12:34:25;;;;;;;1.83;0.50;;;20.80;99.90;;;;;;4993561;28;20049;-78
2022/04/12 12:36:51;;;;;;;2.05;0.40;;;20.70;99.90;;;;;;4989662;28;20176;-78
2022/04/12 12:39:18;;;;;;;3.60;0.60;;;20.60;99.90;;;;;;4960190;28;20331;-78
2022/04/12 12:41:44;;;;;;;1.88;0.40;;;20.50;99.90;;;;;;4993556;28;20432;-79
2022/04/12 12:44:09;;;;;;;1.75;0.40;;;20.70;99.90;;;;;;4982960;28;20037;-78
2022/04/12 12:46:37;;;;;;;2.85;0.40;;;20.80;99.90;;;;;;4978319;28;20951;-78
2022/04/12 12:49:10;;;;;;;1.10;0.35;;;21.00;99.90;;;;;;4994210;28;20026;-79
2022/04/12 12:51:37;;;;;;;1.25;0.30;;;21.50;99.90;;;;;;4976756;28;20049;-78
2022/04/12 12:54:04;;;;;;;1.65;0.38;;;21.80;99.90;;;;;;4977596;28;20522;-79
2022/04/12 12:56:39;;;;;;;1.10;0.20;;;21.80;99.90;;;;;;4972054;28;20713;-78